createdAt,value
2018-12-18T00:00:35.940Z,12.73
2018-12-18T00:03:06.998Z,12.43
2018-12-18T00:05:38.042Z,11.50
2018-12-18T00:08:07.324Z,11.37
2018-12-18T00:10:41.805Z,12.80
2018-12-18T00:13:10.839Z,11.80
2018-12-18T00:15:39.900Z,12.40
2018-12-18T00:18:08.884Z,12.33
2018-12-18T00:20:37.874Z,13.70
2018-12-18T00:23:06.907Z,15.37
2018-12-18T00:25:36.023Z,11.97
2018-12-18T00:28:04.986Z,11.87
2018-12-18T00:30:34.018Z,11.53
2018-12-18T00:33:03.052Z,12.10
2018-12-18T00:35:32.106Z,12.43
2018-12-18T00:38:01.086Z,11.60
2018-12-18T00:40:30.100Z,12.90
2018-12-18T00:42:59.283Z,12.27
2018-12-18T00:45:28.276Z,12.27
2018-12-18T00:47:57.282Z,12.00
2018-12-18T00:50:26.279Z,11.57
2018-12-18T00:52:55.306Z,12.13
2018-12-18T00:55:24.278Z,14.70
2018-12-18T00:57:53.379Z,12.67
2018-12-18T01:00:22.487Z,12.67
2018-12-18T01:02:51.413Z,12.60
2018-12-18T01:05:20.631Z,13.00
2018-12-18T01:07:53.515Z,11.33
2018-12-18T01:10:21.658Z,10.17
2018-12-18T01:12:50.695Z,12.33
2018-12-18T01:15:19.643Z,12.00
2018-12-18T01:17:48.742Z,12.27
2018-12-18T01:20:17.771Z,11.60
2018-12-18T01:22:46.815Z,11.97
2018-12-18T01:25:15.852Z,11.13
2018-12-18T01:27:44.944Z,12.50
2018-12-18T01:30:14.020Z,12.90
2018-12-18T01:32:42.972Z,13.50
2018-12-18T01:35:12.009Z,12.80
2018-12-18T01:37:40.919Z,13.70
2018-12-18T01:40:10.085Z,15.27
2018-12-18T01:42:39.081Z,13.03
2018-12-18T01:45:08.187Z,13.50
2018-12-18T01:47:37.338Z,13.90
2018-12-18T01:50:06.469Z,13.57
2018-12-18T01:52:35.484Z,13.50
2018-12-18T01:55:06.528Z,12.50
2018-12-18T01:57:35.696Z,13.57
2018-12-18T02:00:05.332Z,13.30
2018-12-18T02:02:35.917Z,12.17
2018-12-18T02:05:05.333Z,13.63
2018-12-18T02:07:34.456Z,12.97
2018-12-18T02:10:04.061Z,13.67
2018-12-18T02:12:33.060Z,13.20
2018-12-18T02:15:02.037Z,12.37
2018-12-18T02:17:31.086Z,13.37
2018-12-18T02:20:00.152Z,12.57
2018-12-18T02:22:29.150Z,14.00
2018-12-18T02:24:58.163Z,13.17
2018-12-18T02:27:27.233Z,11.70
2018-12-18T02:29:56.421Z,12.30
2018-12-18T02:32:25.575Z,12.73
2018-12-18T02:34:54.628Z,12.90
2018-12-18T02:37:23.596Z,12.57
2018-12-18T02:39:52.582Z,13.00
2018-12-18T02:42:21.697Z,12.97
2018-12-18T02:44:50.798Z,11.63
2018-12-18T02:47:19.824Z,13.83
2018-12-18T02:49:48.924Z,12.37
2018-12-18T02:52:17.949Z,14.27
2018-12-18T02:54:46.921Z,13.00
2018-12-18T02:57:15.903Z,13.00
2018-12-18T02:59:44.939Z,13.67
2018-12-18T03:02:14.072Z,12.40
2018-12-18T03:04:43.073Z,12.53
2018-12-18T03:07:12.180Z,12.37
2018-12-18T03:09:41.190Z,13.00
2018-12-18T03:12:10.257Z,13.10
2018-12-18T03:14:39.255Z,12.87
2018-12-18T03:17:08.320Z,12.53
2018-12-18T03:19:37.382Z,12.03
2018-12-18T03:22:06.333Z,13.00
2018-12-18T03:24:35.377Z,11.97
2018-12-18T03:27:04.562Z,13.07
2018-12-18T03:29:33.884Z,12.50
2018-12-18T03:32:08.125Z,14.27
2018-12-18T03:34:37.240Z,13.90
2018-12-18T03:37:06.726Z,13.53
2018-12-18T03:39:36.511Z,15.47
2018-12-18T03:42:05.501Z,13.13
2018-12-18T03:44:34.509Z,14.57
2018-12-18T03:47:03.472Z,15.33
2018-12-18T03:49:32.429Z,14.43
2018-12-18T03:52:01.494Z,14.23
2018-12-18T03:54:30.469Z,13.73
2018-12-18T03:56:59.506Z,13.67
2018-12-18T03:59:28.437Z,14.77
2018-12-18T04:01:57.461Z,13.07
2018-12-18T04:04:26.517Z,13.93
2018-12-18T04:06:55.561Z,12.37
2018-12-18T04:09:27.547Z,14.37
2018-12-18T04:12:02.013Z,14.77
2018-12-18T04:14:31.042Z,14.47
2018-12-18T04:17:00.043Z,13.40
2018-12-18T04:19:29.117Z,13.73
2018-12-18T04:21:58.134Z,13.97
2018-12-18T04:24:27.110Z,14.97
2018-12-18T04:26:56.141Z,13.37
2018-12-18T04:29:25.206Z,12.70
2018-12-18T04:31:54.338Z,12.77
2018-12-18T04:34:23.281Z,13.53
2018-12-18T04:36:52.257Z,14.53
2018-12-18T04:39:21.519Z,14.47
2018-12-18T04:41:50.632Z,12.87
2018-12-18T04:44:19.600Z,13.33
2018-12-18T04:46:48.618Z,15.03
2018-12-18T04:49:17.544Z,13.90
2018-12-18T04:51:46.606Z,13.70
2018-12-18T04:54:15.637Z,13.53
2018-12-18T04:56:44.646Z,13.43
2018-12-18T04:59:13.700Z,13.67
2018-12-18T05:01:42.749Z,13.27
2018-12-18T05:04:11.795Z,14.40
2018-12-18T05:06:40.808Z,14.27
2018-12-18T05:09:09.936Z,13.60
2018-12-18T05:11:38.929Z,14.60
2018-12-18T05:14:08.014Z,12.47
2018-12-18T05:16:37.036Z,14.10
2018-12-18T05:19:06.118Z,13.00
2018-12-18T05:21:35.117Z,12.93
2018-12-18T05:24:04.220Z,13.93
2018-12-18T05:26:33.236Z,14.37
2018-12-18T05:29:02.240Z,13.53
2018-12-18T05:31:31.221Z,12.93
2018-12-18T05:34:00.819Z,12.93
2018-12-18T05:36:29.802Z,14.40
2018-12-18T05:38:58.840Z,13.97
2018-12-18T05:41:27.932Z,13.63
2018-12-18T05:43:58.923Z,13.87
2018-12-18T05:46:27.928Z,14.43
2018-12-18T05:48:56.928Z,13.20
2018-12-18T05:51:26.427Z,13.77
2018-12-18T05:53:55.362Z,14.20
2018-12-18T05:56:24.460Z,12.90
2018-12-18T05:58:53.447Z,13.77
2018-12-18T06:01:22.418Z,13.43
2018-12-18T06:03:51.492Z,14.20
2018-12-18T06:06:20.516Z,13.37
2018-12-18T06:08:49.529Z,12.23
2018-12-18T06:11:18.623Z,13.17
2018-12-18T06:13:47.650Z,14.60
2018-12-18T06:16:16.650Z,13.87
2018-12-18T06:18:45.659Z,13.03
2018-12-18T06:21:14.777Z,14.57
2018-12-18T06:23:43.765Z,16.40
2018-12-18T06:26:13.286Z,16.47
2018-12-18T06:28:42.338Z,15.00
2018-12-18T06:31:11.544Z,15.60
2018-12-18T06:33:40.496Z,15.23
2018-12-18T06:36:09.613Z,14.17
2018-12-18T06:38:38.752Z,17.13
2018-12-18T06:41:08.343Z,17.13
2018-12-18T06:43:37.386Z,16.63
2018-12-18T06:46:06.345Z,16.43
2018-12-18T06:48:35.612Z,16.63
2018-12-18T06:51:04.571Z,16.33
2018-12-18T06:53:33.562Z,16.37
2018-12-18T06:56:02.807Z,15.90
2018-12-18T06:58:31.742Z,14.30
2018-12-18T07:01:01.452Z,15.40
2018-12-18T07:03:30.986Z,14.63
2018-12-18T07:05:59.971Z,16.57
2018-12-18T07:08:29.109Z,15.30
2018-12-18T07:10:58.196Z,16.97
2018-12-18T07:13:27.241Z,14.70
2018-12-18T07:15:56.219Z,16.00
2018-12-18T07:18:25.440Z,16.53
2018-12-18T07:20:54.489Z,16.87
2018-12-18T07:23:23.486Z,15.70
2018-12-18T07:25:52.543Z,15.87
2018-12-18T07:28:21.514Z,14.53
2018-12-18T07:30:50.629Z,13.73
2018-12-18T07:33:19.691Z,14.60
2018-12-18T07:35:48.741Z,14.47
2018-12-18T07:38:17.703Z,15.67
2018-12-18T07:40:46.879Z,15.23
2018-12-18T07:43:15.882Z,13.00
2018-12-18T07:45:44.892Z,15.00
2018-12-18T07:48:13.878Z,15.73
2018-12-18T07:50:42.967Z,16.43
2018-12-18T07:53:11.933Z,13.73
2018-12-18T07:55:40.992Z,14.83
2018-12-18T07:58:09.986Z,13.70
2018-12-18T08:00:38.965Z,13.90
2018-12-18T08:03:08.090Z,14.13
2018-12-18T08:05:37.182Z,15.23
2018-12-18T08:08:06.158Z,13.97
2018-12-18T08:10:35.179Z,17.20
2018-12-18T08:13:04.378Z,15.63
2018-12-18T08:15:33.342Z,14.70
2018-12-18T08:18:02.322Z,13.37
2018-12-18T08:20:31.321Z,15.90
2018-12-18T08:23:00.416Z,13.47
2018-12-18T08:25:29.398Z,16.60
2018-12-18T08:27:58.362Z,17.07
2018-12-18T08:30:27.336Z,14.87
2018-12-18T08:32:56.456Z,14.53
2018-12-18T08:35:25.590Z,15.00
2018-12-18T08:37:54.630Z,13.80
2018-12-18T08:40:23.615Z,14.53
2018-12-18T08:42:52.730Z,13.80
2018-12-18T08:45:21.818Z,12.97
2018-12-18T08:47:50.884Z,12.77
2018-12-18T08:50:19.978Z,13.20
2018-12-18T08:52:49.264Z,14.03
2018-12-18T08:55:18.385Z,12.37
2018-12-18T08:57:47.532Z,11.87
2018-12-18T09:00:16.667Z,12.07
2018-12-18T09:02:47.713Z,12.47
2018-12-18T09:05:16.716Z,13.00
2018-12-18T09:07:45.886Z,12.60
2018-12-18T09:10:14.965Z,12.63
2018-12-18T09:12:44.061Z,13.27
2018-12-18T09:15:18.456Z,14.23
2018-12-18T09:17:48.432Z,13.63
2018-12-18T09:20:17.616Z,14.37
2018-12-18T09:22:46.638Z,13.63
2018-12-18T09:25:15.888Z,13.03
2018-12-18T09:27:44.987Z,13.13
2018-12-18T09:30:14.154Z,12.73
2018-12-18T09:32:43.372Z,12.90
2018-12-18T09:35:12.413Z,12.87
2018-12-18T09:37:42.617Z,12.13
2018-12-18T09:40:11.760Z,12.90
2018-12-18T09:42:46.297Z,12.67
2018-12-18T09:45:15.317Z,13.57
2018-12-18T09:47:44.327Z,11.47
2018-12-18T09:50:13.429Z,12.43
2018-12-18T09:52:42.526Z,13.17
2018-12-18T09:55:11.737Z,11.83
2018-12-18T09:57:45.997Z,12.10
2018-12-18T10:00:15.018Z,11.53
2018-12-18T10:02:44.091Z,11.57
2018-12-18T10:05:13.183Z,11.63
2018-12-18T10:07:42.246Z,11.67
2018-12-18T10:10:11.278Z,14.43
2018-12-18T10:12:48.411Z,11.27
2018-12-18T10:15:17.426Z,12.97
2018-12-18T10:17:46.807Z,11.53
2018-12-18T10:20:16.098Z,12.30
2018-12-18T10:22:45.398Z,11.77
2018-12-18T10:25:14.728Z,13.27
2018-12-18T10:27:43.912Z,11.50
2018-12-18T10:30:13.017Z,12.17
2018-12-18T10:32:42.398Z,11.43
2018-12-18T10:35:11.958Z,11.77
2018-12-18T10:37:42.501Z,10.80
2018-12-18T10:40:11.715Z,12.57
2018-12-18T10:42:41.036Z,10.03
2018-12-18T10:45:15.545Z,10.60
2018-12-18T10:47:45.621Z,9.87
2018-12-18T10:50:16.190Z,9.87
2018-12-18T10:52:45.271Z,9.63
2018-12-18T10:55:15.197Z,8.60
2018-12-18T10:57:44.230Z,7.63
2018-12-18T11:00:18.499Z,8.00
2018-12-18T11:02:47.484Z,9.00
2018-12-18T11:05:16.498Z,8.90
2018-12-18T11:07:45.516Z,8.13
2018-12-18T11:10:14.718Z,8.17
2018-12-18T11:12:47.961Z,8.20
2018-12-18T11:15:16.964Z,7.70
2018-12-18T11:17:45.993Z,6.40
2018-12-18T11:20:15.013Z,7.30
2018-12-18T11:22:44.033Z,5.97
2018-12-18T11:25:13.199Z,5.67
2018-12-18T11:27:42.447Z,5.43
2018-12-18T11:30:11.461Z,3.90
2018-12-18T11:32:40.613Z,4.47
2018-12-18T11:35:09.554Z,3.50
2018-12-18T11:37:38.580Z,5.27
2018-12-18T11:40:08.575Z,4.40
2018-12-18T11:42:37.560Z,4.83
2018-12-18T11:45:06.798Z,4.70
2018-12-18T11:47:35.833Z,5.13
2018-12-18T11:50:05.304Z,3.70
2018-12-18T11:52:34.409Z,3.87
2018-12-18T11:55:03.684Z,5.50
2018-12-18T11:57:32.828Z,4.80
2018-12-18T12:00:01.834Z,5.10
2018-12-18T12:02:33.012Z,5.40
2018-12-18T12:05:04.545Z,3.90
2018-12-18T12:09:56.864Z,4.03
2018-12-18T12:12:26.067Z,3.67
2018-12-18T12:14:55.336Z,5.03
2018-12-18T12:17:24.698Z,3.90
2018-12-18T12:19:53.716Z,3.97
2018-12-18T12:22:22.751Z,3.23
2018-12-18T12:24:51.701Z,3.43
2018-12-18T12:27:26.036Z,4.00
2018-12-18T12:29:55.043Z,3.30
2018-12-18T12:32:24.474Z,3.10
2018-12-18T12:34:53.556Z,3.10
2018-12-18T12:37:22.670Z,2.43
2018-12-18T12:39:51.678Z,3.03
2018-12-18T12:42:20.643Z,3.70
2018-12-18T12:44:49.643Z,3.67
2018-12-18T12:47:18.655Z,4.77
2018-12-18T12:49:47.821Z,3.83
2018-12-18T12:52:17.107Z,4.60
2018-12-18T12:54:46.129Z,4.43
2018-12-18T12:57:15.313Z,4.13
2018-12-18T12:59:44.551Z,4.00
2018-12-18T13:02:13.839Z,4.40
2018-12-18T13:04:42.897Z,4.23
2018-12-18T13:07:11.909Z,3.77
2018-12-18T13:09:41.123Z,5.73
2018-12-18T13:12:10.796Z,6.00
2018-12-18T13:14:40.493Z,5.00
2018-12-18T13:17:09.507Z,4.53
2018-12-18T13:19:38.525Z,4.73
2018-12-18T13:22:07.754Z,5.67
2018-12-18T13:24:36.874Z,6.23
2018-12-18T13:27:05.941Z,6.20
2018-12-18T13:29:35.487Z,5.10
2018-12-18T13:32:06.659Z,5.00
2018-12-18T13:34:35.848Z,5.20
2018-12-18T13:37:04.810Z,5.37
2018-12-18T13:39:34.260Z,6.03
2018-12-18T13:42:04.025Z,6.27
2018-12-18T13:44:33.423Z,6.40
2018-12-18T13:47:02.531Z,6.97
2018-12-18T13:49:31.652Z,7.00
2018-12-18T13:52:00.820Z,6.03
2018-12-18T13:54:29.827Z,6.17
2018-12-18T13:56:58.785Z,6.97
2018-12-18T13:59:27.902Z,5.27
2018-12-18T14:01:57.088Z,7.03
2018-12-18T14:04:26.099Z,7.50
2018-12-18T14:06:55.143Z,8.17
2018-12-18T14:09:24.360Z,7.83
2018-12-18T14:11:53.400Z,8.53
2018-12-18T14:14:22.431Z,7.00
2018-12-18T14:16:51.524Z,8.10
2018-12-18T14:19:20.640Z,8.07
2018-12-18T14:21:50.269Z,7.60
2018-12-18T14:24:19.344Z,6.77
2018-12-18T14:26:48.388Z,9.10
2018-12-18T14:29:17.352Z,7.30
2018-12-18T14:31:46.417Z,5.77
2018-12-18T14:34:15.396Z,6.70
2018-12-18T14:36:44.433Z,7.13
2018-12-18T14:39:13.558Z,8.43
2018-12-18T14:41:42.516Z,9.80
2018-12-18T14:44:11.536Z,5.47
2018-12-18T14:46:40.551Z,8.37
2018-12-18T14:49:09.591Z,8.37
2018-12-18T14:51:38.744Z,7.00
2018-12-18T14:54:07.786Z,9.13
2018-12-18T14:56:36.752Z,10.10
2018-12-18T14:59:05.781Z,8.90
2018-12-18T15:01:34.877Z,10.70
2018-12-18T15:04:04.024Z,8.80
2018-12-18T15:06:33.185Z,9.60
2018-12-18T15:09:02.256Z,12.17
2018-12-18T15:11:33.351Z,12.07
2018-12-18T15:14:02.468Z,10.47
2018-12-18T15:16:31.475Z,10.93
2018-12-18T15:19:00.536Z,12.20
2018-12-18T15:21:29.565Z,11.57
2018-12-18T15:23:58.736Z,9.93
2018-12-18T15:26:27.863Z,12.27
2018-12-18T15:28:56.832Z,12.37
2018-12-18T15:31:25.852Z,12.47
2018-12-18T15:33:54.900Z,15.77
2018-12-18T15:36:23.909Z,11.03
2018-12-18T15:38:52.981Z,13.40
2018-12-18T15:41:22.016Z,10.53
2018-12-18T15:43:51.068Z,12.67
2018-12-18T15:46:20.204Z,12.03
2018-12-18T15:48:49.285Z,12.00
2018-12-18T15:51:19.291Z,13.53
2018-12-18T15:53:48.333Z,12.63
2018-12-18T15:56:17.374Z,10.40
2018-12-18T15:58:46.485Z,13.43
2018-12-18T16:01:15.486Z,13.80
2018-12-18T16:03:44.549Z,12.17
2018-12-18T16:06:13.558Z,15.73
2018-12-18T16:08:43.596Z,12.23
2018-12-18T16:11:12.636Z,12.00
2018-12-18T16:13:41.771Z,14.17
2018-12-18T16:16:10.956Z,15.40
2018-12-18T16:18:40.006Z,15.47
2018-12-18T16:21:09.094Z,14.10
2018-12-18T16:23:38.212Z,15.77
2018-12-18T16:26:07.256Z,15.80
2018-12-18T16:28:36.346Z,16.33
2018-12-18T16:31:05.409Z,13.00
2018-12-18T16:33:34.440Z,13.60
2018-12-18T16:36:03.481Z,16.37
2018-12-18T16:38:32.597Z,13.07
2018-12-18T16:41:01.575Z,11.07
2018-12-18T16:43:30.779Z,13.43
2018-12-18T16:45:59.937Z,15.03
2018-12-18T16:48:30.091Z,15.53
2018-12-18T16:50:59.184Z,12.47
2018-12-18T16:53:28.228Z,6.50
2018-12-18T16:55:57.237Z,13.30
2018-12-18T16:58:26.274Z,16.07
2018-12-18T17:00:55.299Z,15.37
2018-12-18T17:03:24.320Z,10.57
2018-12-18T17:05:53.357Z,12.03
2018-12-18T17:08:22.485Z,11.40
2018-12-18T17:10:51.524Z,14.23
2018-12-18T17:13:20.673Z,14.23
2018-12-18T17:15:49.669Z,13.00
2018-12-18T17:18:18.695Z,14.13
2018-12-18T17:20:47.845Z,12.90
2018-12-18T17:23:16.914Z,13.47
2018-12-18T17:25:45.936Z,9.73
2018-12-18T17:28:15.313Z,15.00
2018-12-18T17:30:44.298Z,13.43
2018-12-18T17:33:13.376Z,15.10
2018-12-18T17:35:42.858Z,14.10
2018-12-18T17:38:12.177Z,12.47
2018-12-18T17:40:41.298Z,16.37
2018-12-18T17:43:10.304Z,15.00
2018-12-18T17:45:39.488Z,15.57
2018-12-18T17:48:08.566Z,16.63
2018-12-18T17:50:37.612Z,16.40
2018-12-18T17:53:06.619Z,12.57
2018-12-18T17:55:35.584Z,12.70
2018-12-18T17:58:04.867Z,15.40
2018-12-18T18:00:33.949Z,12.77
2018-12-18T18:03:03.000Z,8.83
2018-12-18T18:05:32.032Z,13.60
2018-12-18T18:08:01.150Z,10.77
2018-12-18T18:10:30.175Z,10.30
2018-12-18T18:12:59.276Z,9.23
2018-12-18T18:15:28.353Z,14.80
2018-12-18T18:17:57.338Z,12.50
2018-12-18T18:20:26.373Z,15.73
2018-12-18T18:22:55.358Z,10.17
2018-12-18T18:25:24.582Z,10.30
2018-12-18T18:27:54.689Z,12.30
2018-12-18T18:30:23.798Z,15.47
2018-12-18T18:32:52.929Z,13.17
2018-12-18T18:35:21.915Z,13.67
2018-12-18T18:37:50.962Z,12.37
2018-12-18T18:40:20.093Z,13.50
2018-12-18T18:42:49.165Z,13.23
2018-12-18T18:45:18.231Z,9.63
2018-12-18T18:47:47.433Z,13.97
2018-12-18T18:50:16.515Z,12.77
2018-12-18T18:52:45.522Z,16.00
2018-12-18T18:55:14.564Z,10.83
2018-12-18T18:57:43.680Z,13.27
2018-12-18T19:00:12.795Z,14.47
2018-12-18T19:02:41.898Z,16.80
2018-12-18T19:05:11.043Z,16.13
2018-12-18T19:07:40.081Z,15.00
2018-12-18T19:10:09.211Z,16.23
2018-12-18T19:12:38.180Z,14.30
2018-12-18T19:15:07.278Z,14.77
2018-12-18T19:17:36.388Z,12.07
2018-12-18T19:20:06.205Z,14.10
2018-12-18T19:22:35.408Z,16.43
2018-12-18T19:25:04.769Z,17.77
2018-12-18T19:27:33.796Z,15.27
2018-12-18T19:30:02.861Z,15.00
2018-12-18T19:32:31.968Z,11.93
2018-12-18T19:35:00.909Z,14.10
2018-12-18T19:37:29.877Z,13.80
2018-12-18T19:39:59.193Z,16.43
2018-12-18T19:42:28.500Z,17.00
2018-12-18T19:44:57.535Z,13.60
2018-12-18T19:47:26.525Z,15.23
2018-12-18T19:49:55.543Z,15.03
2018-12-18T19:52:24.605Z,17.23
2018-12-18T19:54:53.655Z,17.53
2018-12-18T19:57:22.693Z,16.03
2018-12-18T19:59:51.707Z,16.23
2018-12-18T20:02:20.726Z,17.30
2018-12-18T20:04:49.799Z,14.73
2018-12-18T20:07:18.787Z,11.93
2018-12-18T20:09:47.987Z,15.00
2018-12-18T20:12:17.015Z,14.67
2018-12-18T20:14:46.379Z,16.20
2018-12-18T20:17:15.498Z,15.90
2018-12-18T20:19:45.059Z,17.27
2018-12-18T20:22:14.235Z,17.73
2018-12-18T20:24:43.349Z,15.03
2018-12-18T20:27:12.434Z,16.13
2018-12-18T20:29:42.293Z,17.60
2018-12-18T20:32:11.407Z,16.40
2018-12-18T20:34:40.449Z,16.43
2018-12-18T20:37:09.613Z,19.60
2018-12-18T20:39:38.645Z,16.77
2018-12-18T20:42:07.750Z,18.17
2018-12-18T20:44:36.944Z,20.20
2018-12-18T20:47:07.186Z,18.67
2018-12-18T20:49:36.362Z,13.07
2018-12-18T20:52:05.606Z,15.43
2018-12-18T20:54:34.533Z,16.30
2018-12-18T20:57:03.535Z,17.57
2018-12-18T20:59:32.605Z,15.07
2018-12-18T21:02:01.864Z,20.53
2018-12-18T21:04:31.037Z,16.13
2018-12-18T21:07:00.052Z,12.67
2018-12-18T21:09:29.152Z,18.60
2018-12-18T21:11:58.173Z,18.00
2018-12-18T21:14:27.295Z,16.87
2018-12-18T21:16:56.274Z,15.93
2018-12-18T21:19:25.316Z,17.50
2018-12-18T21:21:54.495Z,19.10
2018-12-18T21:24:23.753Z,18.20
2018-12-18T21:26:52.978Z,15.37
2018-12-18T21:29:22.113Z,18.20
2018-12-18T21:31:51.074Z,15.73
2018-12-18T21:34:20.197Z,18.80
2018-12-18T21:36:50.428Z,18.33
2018-12-18T21:39:19.486Z,15.80
2018-12-18T21:41:48.479Z,17.33
2018-12-18T21:44:17.560Z,18.77
2018-12-18T21:46:47.878Z,18.87
2018-12-18T21:49:17.448Z,15.10
2018-12-18T21:51:46.900Z,15.40
2018-12-18T21:54:15.868Z,17.47
2018-12-18T21:56:44.852Z,14.70
2018-12-18T21:59:14.136Z,16.73
2018-12-18T22:01:43.223Z,16.00
2018-12-18T22:04:12.248Z,16.70
2018-12-18T22:06:41.247Z,16.73
2018-12-18T22:09:10.303Z,16.73
2018-12-18T22:11:41.328Z,12.10
2018-12-18T22:14:10.401Z,16.43
2018-12-18T22:16:40.350Z,15.33
2018-12-18T22:19:09.359Z,15.70
2018-12-18T22:21:39.405Z,15.00
2018-12-18T22:24:08.495Z,10.03
2018-12-18T22:26:37.543Z,16.20
2018-12-18T22:29:06.641Z,11.87
2018-12-18T22:31:35.606Z,16.13
2018-12-18T22:34:05.809Z,13.57
2018-12-18T22:36:34.935Z,14.53
2018-12-18T22:39:06.324Z,15.17
2018-12-18T22:41:37.419Z,13.73
2018-12-18T22:44:06.516Z,14.37
2018-12-18T22:46:35.520Z,15.17
2018-12-18T22:49:04.517Z,13.57
2018-12-18T22:51:34.638Z,14.33
2018-12-18T22:54:03.609Z,12.83
2018-12-18T22:56:32.890Z,14.60
2018-12-18T22:59:01.910Z,12.87
2018-12-18T23:01:41.242Z,15.90
2018-12-18T23:04:11.365Z,12.87
2018-12-18T23:06:40.489Z,13.10
2018-12-18T23:09:14.468Z,13.40
2018-12-18T23:11:44.500Z,13.87
2018-12-18T23:14:14.679Z,12.10
2018-12-18T23:16:44.388Z,12.43
2018-12-18T23:19:13.393Z,13.00
2018-12-18T23:21:42.534Z,13.00
2018-12-18T23:24:11.484Z,13.37
2018-12-18T23:26:40.472Z,10.67
2018-12-18T23:29:09.430Z,10.63
2018-12-18T23:31:38.569Z,12.40
2018-12-18T23:34:07.580Z,13.23
2018-12-18T23:36:36.613Z,13.97
2018-12-18T23:39:08.350Z,12.43
2018-12-18T23:41:39.425Z,14.00
2018-12-18T23:44:08.561Z,13.80
2018-12-18T23:46:37.587Z,13.70
2018-12-18T23:49:06.704Z,13.77
2018-12-18T23:51:35.876Z,13.40
2018-12-18T23:54:04.966Z,14.87
2018-12-18T23:56:34.036Z,14.23
2018-12-18T23:59:03.079Z,13.50
